createdAt,value
2023-01-11T00:01:09.852Z,4.20
2023-01-11T00:05:38.506Z,3.03
2023-01-11T00:09:47.943Z,3.87
2023-01-11T00:13:56.489Z,4.00
2023-01-11T00:18:05.320Z,4.00
2023-01-11T00:22:13.892Z,3.77
2023-01-11T00:26:22.443Z,4.60
2023-01-11T00:30:31.052Z,3.83
2023-01-11T00:34:39.607Z,3.50
2023-01-11T00:38:49.826Z,3.60
2023-01-11T00:43:16.886Z,3.07
2023-01-11T00:47:43.741Z,2.67
2023-01-11T00:51:52.846Z,2.30
2023-01-11T00:56:01.408Z,3.43
2023-01-11T01:00:11.105Z,2.60
2023-01-11T01:04:19.792Z,2.83
2023-01-11T01:08:28.422Z,2.40
2023-01-11T01:13:14.221Z,1.80
2023-01-11T01:17:22.849Z,1.87
2023-01-11T01:21:31.477Z,2.10
2023-01-11T01:25:59.357Z,2.40
2023-01-11T01:30:09.137Z,1.70
2023-01-11T01:34:18.177Z,2.27
2023-01-11T01:38:26.782Z,1.70
2023-01-11T01:42:35.428Z,2.07
2023-01-11T01:46:56.303Z,1.90
2023-01-11T01:51:07.845Z,1.50
2023-01-11T01:55:19.525Z,1.80
2023-01-11T01:59:30.740Z,1.80
2023-01-11T02:03:39.354Z,1.90
2023-01-11T02:07:48.467Z,2.10
2023-01-11T02:11:58.252Z,2.00
2023-01-11T02:16:10.127Z,1.70
2023-01-11T02:20:33.695Z,2.23
2023-01-11T02:24:57.403Z,1.80
2023-01-11T02:29:23.437Z,1.77
2023-01-11T02:33:50.459Z,2.23
2023-01-11T02:38:07.806Z,1.50
2023-01-11T02:43:00.187Z,2.13
2023-01-11T02:47:13.558Z,2.10
2023-01-11T02:51:25.199Z,2.00
2023-01-11T02:55:36.934Z,2.00
2023-01-11T02:59:49.344Z,1.80
2023-01-11T03:03:58.795Z,2.07
2023-01-11T03:08:11.380Z,1.70
2023-01-11T03:12:40.739Z,1.73
2023-01-11T03:16:57.649Z,2.13
2023-01-11T03:21:30.344Z,2.00
2023-01-11T03:25:57.195Z,2.27
2023-01-11T03:30:18.841Z,2.33
2023-01-11T03:34:51.675Z,2.37
2023-01-11T03:39:03.315Z,2.20
2023-01-11T03:43:33.872Z,2.13
2023-01-11T03:47:42.416Z,2.00
2023-01-11T03:51:53.998Z,2.00
2023-01-11T03:56:04.919Z,1.93
2023-01-11T04:00:13.810Z,1.93
2023-01-11T04:04:22.545Z,1.70
2023-01-11T04:08:31.302Z,1.50
2023-01-11T04:12:59.228Z,1.57
2023-01-11T04:17:07.785Z,1.53
2023-01-11T04:21:16.364Z,1.30
2023-01-11T04:25:25.040Z,1.40
2023-01-11T04:29:33.677Z,1.30
2023-01-11T04:33:42.301Z,1.60
2023-01-11T04:37:55.644Z,1.60
2023-01-11T04:42:19.611Z,1.57
2023-01-11T04:46:30.097Z,1.30
2023-01-11T04:50:40.618Z,1.33
2023-01-11T04:54:49.206Z,1.50
2023-01-11T04:58:58.128Z,1.50
2023-01-11T05:03:06.864Z,1.70
2023-01-11T05:07:15.600Z,1.40
2023-01-11T05:11:24.224Z,1.37
2023-01-11T05:15:32.776Z,1.70
2023-01-11T05:19:41.788Z,1.40
2023-01-11T05:23:50.621Z,1.63
2023-01-11T05:27:59.166Z,1.37
2023-01-11T05:32:07.746Z,1.53
2023-01-11T05:36:24.154Z,1.40
2023-01-11T05:40:32.715Z,1.43
2023-01-11T05:44:59.474Z,1.50
2023-01-11T05:49:10.300Z,1.50
2023-01-11T05:53:19.499Z,1.50
2023-01-11T05:57:28.324Z,1.60
2023-01-11T06:01:37.053Z,1.77
2023-01-11T06:05:50.087Z,1.50
2023-01-11T06:09:58.668Z,1.57
2023-01-11T06:14:07.225Z,1.40
2023-01-11T06:18:16.180Z,1.60
2023-01-11T06:22:24.740Z,1.57
2023-01-11T06:26:33.312Z,1.50
2023-01-11T06:30:42.107Z,1.63
2023-01-11T06:34:50.795Z,1.50
2023-01-11T06:38:59.424Z,1.90
2023-01-11T06:43:09.281Z,2.00
2023-01-11T06:47:17.909Z,2.30
2023-01-11T06:51:26.436Z,1.93
2023-01-11T06:55:37.897Z,2.20
2023-01-11T06:59:47.174Z,2.20
2023-01-11T07:03:55.757Z,2.07
2023-01-11T07:08:04.637Z,1.80
2023-01-11T07:12:14.803Z,2.40
2023-01-11T07:16:23.633Z,2.43
2023-01-11T07:20:32.367Z,2.10
2023-01-11T07:24:40.995Z,2.03
2023-01-11T07:28:49.504Z,1.87
2023-01-11T07:33:01.427Z,2.40
2023-01-11T07:37:28.055Z,2.43
2023-01-11T07:41:40.381Z,1.80
2023-01-11T07:45:50.929Z,2.03
2023-01-11T07:49:59.567Z,2.50
2023-01-11T07:54:08.114Z,3.07
2023-01-11T07:58:17.279Z,2.83
2023-01-11T08:02:26.007Z,3.37
2023-01-11T08:06:34.706Z,4.40
2023-01-11T08:10:43.332Z,3.67
2023-01-11T08:14:52.296Z,3.77
2023-01-11T08:19:01.696Z,3.83
2023-01-11T08:23:11.489Z,3.25
2023-01-11T08:27:20.120Z,2.83
2023-01-11T08:31:49.023Z,3.30
2023-01-11T08:35:57.752Z,3.00
2023-01-11T08:40:27.627Z,2.93
2023-01-11T08:44:36.313Z,4.00
2023-01-11T08:48:46.791Z,3.20
2023-01-11T08:52:55.276Z,3.27
2023-01-11T08:57:03.939Z,4.50
2023-01-11T09:01:12.472Z,3.17
2023-01-11T09:05:21.025Z,3.43
2023-01-11T09:09:30.147Z,3.30
2023-01-11T09:13:38.692Z,3.73
2023-01-11T09:17:50.840Z,2.67
2023-01-11T09:22:01.149Z,3.37
2023-01-11T09:26:09.676Z,2.53
2023-01-11T09:30:20.735Z,4.27
2023-01-11T09:34:29.479Z,2.55
2023-01-11T09:38:39.652Z,3.60
2023-01-11T09:42:52.745Z,2.80
2023-01-11T09:47:40.332Z,3.10
2023-01-11T09:51:51.332Z,3.60
2023-01-11T09:56:03.702Z,3.07
2023-01-11T10:00:21.565Z,3.30
2023-01-11T10:04:37.454Z,3.47
2023-01-11T10:18:29.663Z,3.90
2023-01-11T10:22:33.074Z,4.35
2023-01-11T10:26:42.113Z,3.77
2023-01-11T10:31:00.916Z,3.20
2023-01-11T10:35:32.261Z,3.67
2023-01-11T10:40:38.950Z,3.80
2023-01-11T10:45:02.745Z,3.05
2023-01-11T10:49:30.278Z,3.20
2023-01-11T10:53:51.143Z,3.17
2023-01-11T10:58:03.765Z,3.73
2023-01-11T11:02:30.924Z,3.13
2023-01-11T11:06:55.086Z,2.90
2023-01-11T11:11:15.938Z,3.22
2023-01-11T11:15:30.582Z,3.70
2023-01-11T11:19:41.187Z,3.43
2023-01-11T11:23:55.116Z,3.13
2023-01-11T11:28:09.033Z,3.00
2023-01-11T11:32:29.655Z,2.80
2023-01-11T11:36:46.854Z,3.93
2023-01-11T11:41:01.255Z,3.20
2023-01-11T11:45:15.764Z,3.70
2023-01-11T11:49:25.132Z,3.70
2023-01-11T11:53:56.157Z,4.43
2023-01-11T11:58:08.606Z,4.37
2023-01-11T12:02:26.420Z,5.30
2023-01-11T12:06:34.946Z,4.93
2023-01-11T12:10:49.478Z,5.17
2023-01-11T12:15:16.029Z,5.47
2023-01-11T12:19:39.603Z,4.60
2023-01-11T12:23:49.642Z,4.43
2023-01-11T12:28:10.114Z,4.77
2023-01-11T12:32:40.098Z,4.37
2023-01-11T12:36:54.473Z,4.97
2023-01-11T12:41:18.049Z,4.00
2023-01-11T12:45:38.659Z,4.60
2023-01-11T12:50:12.593Z,4.00
2023-01-11T12:54:33.494Z,4.23
2023-01-11T12:58:48.779Z,3.30
2023-01-11T13:03:03.456Z,3.70
2023-01-11T13:07:20.781Z,4.67
2023-01-11T13:11:35.443Z,5.33
2023-01-11T13:16:05.582Z,3.20
2023-01-11T13:20:23.244Z,4.00
2023-01-11T13:24:33.854Z,3.10
2023-01-11T13:28:45.229Z,2.83
2023-01-11T13:33:00.067Z,2.90
2023-01-11T13:37:17.501Z,3.07
2023-01-11T13:41:46.909Z,2.73
2023-01-11T13:46:16.100Z,3.70
2023-01-11T13:50:37.045Z,3.90
2023-01-11T13:54:51.204Z,3.70
2023-01-11T13:59:18.267Z,2.60
2023-01-11T14:03:47.839Z,2.97
2023-01-11T14:08:17.609Z,3.00
2023-01-11T14:12:45.618Z,3.30
2023-01-11T14:16:57.237Z,5.23
2023-01-11T14:21:09.123Z,4.07
2023-01-11T14:25:32.816Z,3.17
2023-01-11T14:29:44.581Z,3.47
2023-01-11T14:34:18.807Z,3.60
2023-01-11T14:38:48.326Z,3.43
2023-01-11T14:43:02.589Z,4.03
2023-01-11T14:47:32.002Z,3.00
2023-01-11T14:51:58.999Z,3.57
2023-01-11T14:56:34.624Z,3.50
2023-01-11T15:00:46.226Z,2.70
2023-01-11T15:04:57.927Z,2.53
2023-01-11T15:09:44.097Z,2.53
2023-01-11T15:13:58.699Z,4.17
2023-01-11T15:18:20.844Z,2.83
2023-01-11T15:22:34.275Z,3.20
2023-01-11T15:26:46.008Z,4.00
2023-01-11T15:30:55.032Z,3.87
2023-01-11T15:35:29.357Z,3.13
2023-01-11T15:40:04.624Z,2.70
2023-01-11T15:44:42.130Z,2.43
2023-01-11T15:49:19.451Z,3.07
2023-01-11T15:53:41.335Z,4.00
2023-01-11T15:58:24.041Z,2.80
2023-01-11T16:02:50.635Z,3.10
2023-01-11T16:07:05.392Z,3.70
2023-01-11T16:11:32.032Z,3.00
2023-01-11T16:15:43.758Z,3.17
2023-01-11T16:19:53.973Z,3.63
2023-01-11T16:24:08.651Z,3.57
2023-01-11T16:28:18.040Z,3.58
2023-01-11T16:32:46.025Z,3.63
2023-01-11T16:36:54.654Z,3.10
2023-01-11T16:41:05.543Z,3.27
2023-01-11T16:45:22.914Z,2.50
2023-01-11T16:49:31.550Z,3.20
2023-01-11T16:53:59.556Z,3.27
2023-01-11T16:58:29.310Z,2.60
2023-01-11T17:02:41.302Z,3.40
2023-01-11T17:06:49.664Z,2.70
2023-01-11T17:11:01.336Z,3.00
2023-01-11T17:15:29.522Z,3.80
2023-01-11T17:19:40.813Z,3.93
2023-01-11T17:23:52.621Z,2.93
2023-01-11T17:28:04.216Z,2.60
2023-01-11T17:32:18.960Z,2.93
2023-01-11T17:36:28.537Z,2.53
2023-01-11T17:40:41.627Z,2.87
2023-01-11T17:45:13.243Z,2.93
2023-01-11T17:49:34.903Z,2.27
2023-01-11T17:53:55.859Z,2.83
2023-01-11T17:58:13.423Z,2.67
2023-01-11T18:02:22.164Z,2.80
2023-01-11T18:06:44.602Z,3.97
2023-01-11T18:10:55.950Z,2.53
2023-01-11T18:15:07.007Z,3.10
2023-01-11T18:19:41.864Z,2.47
2023-01-11T18:23:50.466Z,3.20
2023-01-11T18:28:14.161Z,2.73
2023-01-11T18:32:42.717Z,2.67
2023-01-11T18:36:52.975Z,2.20
2023-01-11T18:41:27.802Z,2.40
2023-01-11T18:45:40.926Z,2.50
2023-01-11T18:49:53.502Z,3.00
2023-01-11T18:54:06.114Z,2.50
2023-01-11T18:58:14.670Z,2.90
2023-01-11T19:02:28.512Z,2.60
2023-01-11T19:06:39.354Z,2.50
2023-01-11T19:10:49.672Z,2.80
2023-01-11T19:15:17.870Z,2.73
2023-01-11T19:19:26.656Z,2.57
2023-01-11T19:23:35.713Z,2.60
2023-01-11T19:27:44.239Z,3.00
2023-01-11T19:31:55.707Z,3.43
2023-01-11T19:36:12.184Z,3.93
2023-01-11T19:40:23.175Z,2.93
2023-01-11T19:44:36.548Z,2.70
2023-01-11T19:48:45.540Z,2.87
2023-01-11T19:52:56.285Z,3.17
2023-01-11T19:57:08.394Z,3.20
2023-01-11T20:01:20.369Z,3.20
2023-01-11T20:05:33.461Z,2.57
2023-01-11T20:09:43.805Z,3.10
2023-01-11T20:13:52.535Z,3.13
2023-01-11T20:18:01.679Z,3.00
2023-01-11T20:22:37.216Z,3.77
2023-01-11T20:26:46.646Z,2.80
2023-01-11T20:31:02.053Z,3.83
2023-01-11T20:35:10.049Z,2.83
2023-01-11T20:39:24.539Z,3.03
2023-01-11T20:43:38.336Z,2.83
2023-01-11T20:47:51.049Z,3.13
2023-01-11T20:52:01.373Z,2.30
2023-01-11T20:56:11.804Z,3.03
2023-01-11T21:00:22.991Z,3.43
2023-01-11T21:04:31.751Z,2.70
2023-01-11T21:08:40.313Z,3.20
2023-01-11T21:12:50.567Z,3.27
2023-01-11T21:16:59.321Z,2.60
2023-01-11T21:21:09.388Z,2.87
2023-01-11T21:25:18.092Z,2.40
2023-01-11T21:29:28.377Z,2.23
2023-01-11T21:33:41.827Z,2.70
2023-01-11T21:37:53.689Z,2.37
2023-01-11T21:42:03.597Z,3.37
2023-01-11T21:46:13.411Z,2.70
2023-01-11T21:50:23.966Z,2.90
2023-01-11T21:54:33.046Z,2.77
2023-01-11T21:58:41.635Z,2.50
2023-01-11T22:02:51.319Z,2.27
2023-01-11T22:07:02.042Z,3.27
2023-01-11T22:11:11.860Z,2.90
2023-01-11T22:15:20.482Z,2.87
2023-01-11T22:19:29.107Z,2.23
2023-01-11T22:23:38.145Z,2.40
2023-01-11T22:27:46.677Z,3.50
2023-01-11T22:31:56.845Z,2.50
2023-01-11T22:36:09.310Z,2.67
2023-01-11T22:40:17.927Z,2.87
2023-01-11T22:44:26.486Z,2.37
2023-01-11T22:48:35.020Z,3.13
2023-01-11T22:52:43.667Z,2.83
2023-01-11T22:56:52.296Z,2.73
2023-01-11T23:01:24.617Z,3.90
2023-01-11T23:05:33.207Z,2.47
2023-01-11T23:09:42.136Z,2.90
2023-01-11T23:13:54.915Z,3.10
2023-01-11T23:18:03.815Z,2.97
2023-01-11T23:22:13.990Z,3.77
2023-01-11T23:26:23.214Z,3.77
2023-01-11T23:30:32.054Z,2.83
2023-01-11T23:34:40.677Z,2.90
2023-01-11T23:38:50.372Z,2.30
2023-01-11T23:43:00.594Z,4.43
2023-01-11T23:47:21.774Z,3.27
2023-01-11T23:51:30.312Z,2.60
2023-01-11T23:55:40.220Z,4.13
2023-01-11T23:59:48.775Z,2.37
